• Join FlightAware (Why Join?)
  • Login
  • US Flag 
12:13PM EDT


 

Airport Tracker/Info


-or-


 

Live Flight TrackerFlight Track Log ✈ SPR810 ✈ 10-May-2013 ✈ CYQY - CYHZ

Flight Track Log - Related Links

Times and Time Zones

All times are in EDT time to prevent confusion due to time zone crossing. See the SPR810 flight status page for this flight to view local times or setup timezone preferences in your user account.

Time Position Orientation Groundspeed Altitude Reporting Facility
EDT Latitude Longitude Course Direction KTS MPH feet Rate Location/Type
01:17PM 46.1333 -60.0667 240° Southwest 150 173 1,700  Level Moncton Center
01:18PM 46.1167 -60.1167 244° Southwest 160 184 3,300 1,440 Climbing Moncton Center
01:19PM 46.0833 -60.2000 240° Southwest 160 184 4,600 1,380 Climbing Moncton Center
01:20PM 46.0667 -60.2500 244° Southwest 180 207 6,100 1,380 Climbing Moncton Center
01:21PM 46.0500 -60.3167 250° West 180 207 7,500 1,440 Climbing Moncton Center
01:22PM 46.0167 -60.3667 226° Southwest 170 196 9,000 1,500 Climbing Moncton Center
01:23PM 45.9909 -60.5063 240° Southwest  Level FlightAware Approximate
01:23PM 46.0000 -60.4500 254° West 170 196 10,500  Level Moncton Center
01:24PM 46.0000 -60.5167 270° West 180 207 12,000 1,440 Climbing Moncton Center
01:25PM 45.9667 -60.5667 226° Southwest 180 207 13,400 1,440 Climbing Moncton Center
01:26PM 45.9500 -60.6500 254° West 170 196 14,900 1,260 Climbing Moncton Center
01:27PM 45.9167 -60.7000 226° Southwest 170 196 16,000 600 Climbing Moncton Center
01:28PM 45.9000 -60.7667 250° West 190 219 16,200 60 Climbing Moncton Center
01:29PM 45.8667 -60.8333 234° Southwest 210 242 16,200  Level Moncton Center
01:30PM 45.8333 -60.9167 240° Southwest 220 253 16,200 -60 Level Moncton Center
01:31PM 45.8000 -60.9833 234° Southwest 230 265 16,100 -60 Descending Moncton Center
01:32PM 45.7833 -61.0833 257° West 230 265 16,100  Level Moncton Center
01:33PM 45.7500 -61.1667 240° Southwest 230 265 16,100  Level Moncton Center
01:34PM 45.7167 -61.2500 240° Southwest 230 265 16,100  Level Moncton Center
01:35PM 45.6833 -61.3333 240° Southwest 230 265 16,100  Level Moncton Center
01:36PM 45.6667 -61.4000 250° West 230 265 16,100 -60 Level Moncton Center
01:37PM 45.6333 -61.5000 245° Southwest 230 265 16,000 -60 Descending Moncton Center
01:38PM 45.6000 -61.5667 234° Southwest 230 265 16,000  Level Moncton Center
01:39PM 45.5667 -61.6500 240° Southwest 230 265 16,000  Level Moncton Center
01:40PM 45.5500 -61.7167 250° West 220 253 16,000  Level Moncton Center
01:41PM 45.5167 -61.8167 245° Southwest 220 253 16,000  Level Moncton Center
01:42PM 45.4833 -61.9000 240° Southwest 230 265 16,000  Level Moncton Center
01:43PM 45.4500 -61.9667 235° Southwest 230 265 16,000 -60 Level Moncton Center
01:44PM 45.4167 -62.0333 235° Southwest 230 265 15,900 -420 Descending Moncton Center
01:45PM 45.3667 -62.1167 230° Southwest 240 276 15,200 -780 Descending Moncton Center
01:46PM 45.3167 -62.1833 223° Southwest 250 288 14,400 -720 Descending Moncton Center
01:47PM 45.2667 -62.2500 223° Southwest 250 288 13,800 -780 Descending Moncton Center
01:48PM 45.2500 -62.3500 257° West 250 288 12,900 -840 Descending Moncton Center
01:49PM 45.2333 -62.4500 257° West 250 288 12,200 -780 Descending Moncton Center
01:50PM 45.2167 -62.5167 250° West 250 288 11,400 -840 Descending Moncton Center
01:51PM 45.2000 -62.6167 257° West 250 288 10,600 -900 Descending Moncton Center
01:52PM 45.1833 -62.7167 257° West 240 276 9,600 -1,080 Descending Moncton Center
01:53PM 45.1667 -62.8000 254° West 240 276 8,500 -1,140 Descending Moncton Center
01:54PM 45.1500 -62.9000 257° West 240 276 7,400 -1,200 Descending Moncton Center
01:55PM 45.1167 -63.0000 245° Southwest 240 276 6,100 -1,260 Descending Moncton Center
01:56PM 45.1000 -63.0667 251° West 230 265 4,900 -1,260 Descending Moncton Center
01:57PM 45.0833 -63.1667 257° West 230 265 3,600 -1,080 Descending Moncton Center
01:58PM 45.0667 -63.2333 251° West 210 242 2,800 -720 Descending Moncton Center
01:59PM 45.0667 -63.3000 270° West 160 184 2,200 -300 Descending Moncton Center
02:00PM 45.0333 -63.3333 215° Southwest 140 161 2,200  Level Moncton Center
02:01PM 45.0000 -63.3500 199° South 130 150 2,200  Level Moncton Center
02:02PM 44.9667 -63.4000 227° Southwest 140 161 2,200 -60 Level Moncton Center
02:03PM 44.9333 -63.4333 215° Southwest 140 161 2,100 -420 Descending Moncton Center
02:04PM 44.9167 -63.4500 215° Southwest 120 138 1,400 -660 Descending Moncton Center
02:05PM 44.8833 -63.4833 215° Southwest 120 138 800 -600 Descending Moncton Center